sensor_id;sensor_type;location;lat;lon;timestamp;P1;durP1;ratioP1;P2;durP2;ratioP2
57746;SDS011;43580;44.014;20.466;2022-09-28T00:00:07;26.33;;;14.23;;
57746;SDS011;43580;44.014;20.466;2022-09-28T00:02:34;22.60;;;14.85;;
57746;SDS011;43580;44.014;20.466;2022-09-28T00:05:03;31.30;;;18.00;;
57746;SDS011;43580;44.014;20.466;2022-09-28T00:07:29;28.90;;;17.20;;
57746;SDS011;43580;44.014;20.466;2022-09-28T00:09:55;25.63;;;16.95;;
57746;SDS011;43580;44.014;20.466;2022-09-28T00:12:21;32.58;;;16.45;;
57746;SDS011;43580;44.014;20.466;2022-09-28T00:14:47;27.15;;;16.15;;
57746;SDS011;43580;44.014;20.466;2022-09-28T00:17:13;25.17;;;15.57;;
57746;SDS011;43580;44.014;20.466;2022-09-28T00:19:41;29.73;;;16.02;;
57746;SDS011;43580;44.014;20.466;2022-09-28T00:22:08;29.00;;;16.55;;
57746;SDS011;43580;44.014;20.466;2022-09-28T00:24:34;29.30;;;15.80;;
57746;SDS011;43580;44.014;20.466;2022-09-28T00:27:00;27.67;;;16.58;;
57746;SDS011;43580;44.014;20.466;2022-09-28T00:29:29;23.70;;;17.08;;
57746;SDS011;43580;44.014;20.466;2022-09-28T00:31:59;29.25;;;17.63;;
57746;SDS011;43580;44.014;20.466;2022-09-28T00:34:30;31.08;;;17.58;;
57746;SDS011;43580;44.014;20.466;2022-09-28T00:36:56;27.52;;;16.40;;
57746;SDS011;43580;44.014;20.466;2022-09-28T00:39:22;63.38;;;41.17;;
57746;SDS011;43580;44.014;20.466;2022-09-28T00:41:49;182.52;;;119.78;;
57746;SDS011;43580;44.014;20.466;2022-09-28T00:46:54;41.67;;;26.40;;
57746;SDS011;43580;44.014;20.466;2022-09-28T00:49:26;47.47;;;31.77;;
57746;SDS011;43580;44.014;20.466;2022-09-28T00:51:56;26.70;;;17.88;;
57746;SDS011;43580;44.014;20.466;2022-09-28T00:54:22;32.10;;;17.00;;
57746;SDS011;43580;44.014;20.466;2022-09-28T00:56:49;22.90;;;15.23;;
57746;SDS011;43580;44.014;20.466;2022-09-28T00:59:15;22.30;;;13.50;;
57746;SDS011;43580;44.014;20.466;2022-09-28T01:01:41;23.63;;;13.75;;
57746;SDS011;43580;44.014;20.466;2022-09-28T01:04:07;21.42;;;13.45;;
57746;SDS011;43580;44.014;20.466;2022-09-28T01:06:35;32.53;;;14.55;;
57746;SDS011;43580;44.014;20.466;2022-09-28T01:09:02;21.58;;;12.30;;
57746;SDS011;43580;44.014;20.466;2022-09-28T01:11:30;28.67;;;14.30;;
57746;SDS011;43580;44.014;20.466;2022-09-28T01:13:56;24.17;;;14.88;;
57746;SDS011;43580;44.014;20.466;2022-09-28T01:18:58;33.00;;;21.13;;
57746;SDS011;43580;44.014;20.466;2022-09-28T01:21:26;39.38;;;21.67;;
57746;SDS011;43580;44.014;20.466;2022-09-28T01:28:45;33.80;;;22.10;;
57746;SDS011;43580;44.014;20.466;2022-09-28T01:31:12;30.00;;;19.20;;
57746;SDS011;43580;44.014;20.466;2022-09-28T01:38:47;21.88;;;12.90;;
57746;SDS011;43580;44.014;20.466;2022-09-28T01:41:14;25.50;;;16.95;;
57746;SDS011;43580;44.014;20.466;2022-09-28T01:43:42;31.20;;;17.50;;
57746;SDS011;43580;44.014;20.466;2022-09-28T01:46:15;21.95;;;12.63;;
57746;SDS011;43580;44.014;20.466;2022-09-28T01:48:57;33.42;;;17.45;;
57746;SDS011;43580;44.014;20.466;2022-09-28T01:51:34;25.95;;;14.98;;
57746;SDS011;43580;44.014;20.466;2022-09-28T01:54:09;28.00;;;17.13;;
57746;SDS011;43580;44.014;20.466;2022-09-28T01:56:37;21.58;;;13.35;;
57746;SDS011;43580;44.014;20.466;2022-09-28T02:01:37;18.27;;;11.70;;
57746;SDS011;43580;44.014;20.466;2022-09-28T02:04:12;19.65;;;12.75;;
57746;SDS011;43580;44.014;20.466;2022-09-28T02:06:46;20.30;;;11.20;;
57746;SDS011;43580;44.014;20.466;2022-09-28T02:09:21;16.05;;;11.18;;
57746;SDS011;43580;44.014;20.466;2022-09-28T02:11:50;26.05;;;12.00;;
57746;SDS011;43580;44.014;20.466;2022-09-28T02:14:18;23.85;;;11.68;;
57746;SDS011;43580;44.014;20.466;2022-09-28T02:16:49;21.17;;;11.05;;
57746;SDS011;43580;44.014;20.466;2022-09-28T02:19:25;19.95;;;10.18;;
57746;SDS011;43580;44.014;20.466;2022-09-28T02:24:31;18.75;;;10.93;;
57746;SDS011;43580;44.014;20.466;2022-09-28T02:27:01;23.45;;;12.60;;
57746;SDS011;43580;44.014;20.466;2022-09-28T02:29:28;24.40;;;15.05;;
57746;SDS011;43580;44.014;20.466;2022-09-28T02:31:54;24.08;;;13.55;;
57746;SDS011;43580;44.014;20.466;2022-09-28T02:34:20;23.52;;;12.93;;
57746;SDS011;43580;44.014;20.466;2022-09-28T02:36:46;20.05;;;13.07;;
57746;SDS011;43580;44.014;20.466;2022-09-28T02:39:13;21.17;;;13.73;;
57746;SDS011;43580;44.014;20.466;2022-09-28T02:49:20;26.45;;;15.55;;
57746;SDS011;43580;44.014;20.466;2022-09-28T02:57:11;20.65;;;10.95;;
57746;SDS011;43580;44.014;20.466;2022-09-28T03:02:10;21.13;;;10.02;;
57746;SDS011;43580;44.014;20.466;2022-09-28T03:04:40;21.23;;;10.98;;
57746;SDS011;43580;44.014;20.466;2022-09-28T03:10:00;15.38;;;10.43;;
57746;SDS011;43580;44.014;20.466;2022-09-28T03:12:27;15.43;;;10.30;;
57746;SDS011;43580;44.014;20.466;2022-09-28T03:17:32;18.73;;;10.00;;
57746;SDS011;43580;44.014;20.466;2022-09-28T03:19:58;19.60;;;10.25;;
57746;SDS011;43580;44.014;20.466;2022-09-28T03:22:24;18.60;;;10.68;;
57746;SDS011;43580;44.014;20.466;2022-09-28T03:24:50;14.55;;;10.05;;
57746;SDS011;43580;44.014;20.466;2022-09-28T03:27:16;17.05;;;9.45;;
57746;SDS011;43580;44.014;20.466;2022-09-28T03:29:42;17.63;;;10.93;;
57746;SDS011;43580;44.014;20.466;2022-09-28T03:32:08;16.00;;;9.13;;
57746;SDS011;43580;44.014;20.466;2022-09-28T03:34:34;17.60;;;9.88;;
57746;SDS011;43580;44.014;20.466;2022-09-28T03:37:00;16.92;;;9.90;;
57746;SDS011;43580;44.014;20.466;2022-09-28T03:39:27;15.68;;;10.48;;
57746;SDS011;43580;44.014;20.466;2022-09-28T03:41:52;16.50;;;10.73;;
57746;SDS011;43580;44.014;20.466;2022-09-28T03:44:21;18.00;;;10.52;;
57746;SDS011;43580;44.014;20.466;2022-09-28T03:46:47;18.38;;;13.40;;
57746;SDS011;43580;44.014;20.466;2022-09-28T03:49:13;19.10;;;11.60;;
57746;SDS011;43580;44.014;20.466;2022-09-28T03:51:39;15.70;;;11.02;;
57746;SDS011;43580;44.014;20.466;2022-09-28T03:54:05;20.08;;;12.77;;
57746;SDS011;43580;44.014;20.466;2022-09-28T03:56:31;20.27;;;15.15;;
57746;SDS011;43580;44.014;20.466;2022-09-28T03:58:57;22.85;;;16.08;;
57746;SDS011;43580;44.014;20.466;2022-09-28T04:01:28;23.33;;;16.98;;
57746;SDS011;43580;44.014;20.466;2022-09-28T04:03:54;25.73;;;16.95;;
57746;SDS011;43580;44.014;20.466;2022-09-28T04:06:20;21.90;;;16.83;;
57746;SDS011;43580;44.014;20.466;2022-09-28T04:08:46;25.58;;;18.40;;
57746;SDS011;43580;44.014;20.466;2022-09-28T04:11:12;21.02;;;15.15;;
57746;SDS011;43580;44.014;20.466;2022-09-28T04:13:38;24.90;;;16.35;;
57746;SDS011;43580;44.014;20.466;2022-09-28T04:16:05;20.00;;;15.18;;
57746;SDS011;43580;44.014;20.466;2022-09-28T04:18:31;22.30;;;15.45;;
57746;SDS011;43580;44.014;20.466;2022-09-28T04:21:07;18.95;;;14.73;;
57746;SDS011;43580;44.014;20.466;2022-09-28T04:23:33;23.63;;;16.85;;
57746;SDS011;43580;44.014;20.466;2022-09-28T04:26:00;23.85;;;17.65;;
57746;SDS011;43580;44.014;20.466;2022-09-28T04:28:27;31.67;;;20.17;;
57746;SDS011;43580;44.014;20.466;2022-09-28T04:31:18;27.70;;;18.25;;
57746;SDS011;43580;44.014;20.466;2022-09-28T04:33:45;23.88;;;17.92;;
57746;SDS011;43580;44.014;20.466;2022-09-28T04:36:11;21.40;;;15.73;;
57746;SDS011;43580;44.014;20.466;2022-09-28T04:38:37;29.05;;;22.58;;
57746;SDS011;43580;44.014;20.466;2022-09-28T04:41:04;58.65;;;37.92;;
57746;SDS011;43580;44.014;20.466;2022-09-28T04:43:33;40.53;;;26.30;;
57746;SDS011;43580;44.014;20.466;2022-09-28T04:46:02;68.97;;;39.88;;
57746;SDS011;43580;44.014;20.466;2022-09-28T04:48:31;53.13;;;32.28;;
57746;SDS011;43580;44.014;20.466;2022-09-28T04:50:58;44.63;;;27.77;;
57746;SDS011;43580;44.014;20.466;2022-09-28T04:53:25;56.30;;;38.40;;
57746;SDS011;43580;44.014;20.466;2022-09-28T04:55:58;21.30;;;18.27;;
57746;SDS011;43580;44.014;20.466;2022-09-28T04:58:24;21.15;;;17.98;;
57746;SDS011;43580;44.014;20.466;2022-09-28T05:00:51;27.20;;;19.48;;
57746;SDS011;43580;44.014;20.466;2022-09-28T05:03:17;27.42;;;20.40;;
57746;SDS011;43580;44.014;20.466;2022-09-28T05:05:43;22.25;;;15.73;;
57746;SDS011;43580;44.014;20.466;2022-09-28T05:08:09;20.67;;;14.25;;
57746;SDS011;43580;44.014;20.466;2022-09-28T05:10:36;21.98;;;14.50;;
57746;SDS011;43580;44.014;20.466;2022-09-28T05:13:04;19.52;;;13.10;;
57746;SDS011;43580;44.014;20.466;2022-09-28T05:15:31;16.88;;;12.80;;
57746;SDS011;43580;44.014;20.466;2022-09-28T05:17:58;16.13;;;13.10;;
57746;SDS011;43580;44.014;20.466;2022-09-28T05:20:27;18.02;;;12.90;;
57746;SDS011;43580;44.014;20.466;2022-09-28T05:22:53;17.58;;;13.30;;
57746;SDS011;43580;44.014;20.466;2022-09-28T05:25:19;16.05;;;13.02;;
57746;SDS011;43580;44.014;20.466;2022-09-28T05:27:45;17.55;;;13.63;;
57746;SDS011;43580;44.014;20.466;2022-09-28T05:30:11;17.13;;;14.15;;
57746;SDS011;43580;44.014;20.466;2022-09-28T05:32:40;21.58;;;12.73;;
57746;SDS011;43580;44.014;20.466;2022-09-28T05:35:08;16.48;;;13.40;;
57746;SDS011;43580;44.014;20.466;2022-09-28T05:37:35;16.38;;;13.45;;
57746;SDS011;43580;44.014;20.466;2022-09-28T05:40:01;15.98;;;13.05;;
57746;SDS011;43580;44.014;20.466;2022-09-28T05:42:28;15.75;;;12.00;;
57746;SDS011;43580;44.014;20.466;2022-09-28T05:44:54;16.35;;;12.00;;
57746;SDS011;43580;44.014;20.466;2022-09-28T05:47:22;16.45;;;10.73;;
57746;SDS011;43580;44.014;20.466;2022-09-28T05:49:49;12.30;;;10.88;;
57746;SDS011;43580;44.014;20.466;2022-09-28T05:52:15;14.38;;;11.13;;
57746;SDS011;43580;44.014;20.466;2022-09-28T05:54:41;17.17;;;14.02;;
57746;SDS011;43580;44.014;20.466;2022-09-28T05:57:10;18.73;;;14.38;;
57746;SDS011;43580;44.014;20.466;2022-09-28T05:59:36;12.85;;;9.20;;
57746;SDS011;43580;44.014;20.466;2022-09-28T06:02:02;13.55;;;9.18;;
57746;SDS011;43580;44.014;20.466;2022-09-28T06:04:28;19.30;;;13.88;;
57746;SDS011;43580;44.014;20.466;2022-09-28T06:06:54;21.85;;;15.82;;
57746;SDS011;43580;44.014;20.466;2022-09-28T06:09:23;21.23;;;15.55;;
57746;SDS011;43580;44.014;20.466;2022-09-28T06:11:49;17.90;;;14.23;;
57746;SDS011;43580;44.014;20.466;2022-09-28T06:14:16;17.80;;;13.15;;
57746;SDS011;43580;44.014;20.466;2022-09-28T06:16:42;14.48;;;12.13;;
57746;SDS011;43580;44.014;20.466;2022-09-28T06:19:09;16.38;;;12.23;;
57746;SDS011;43580;44.014;20.466;2022-09-28T06:21:35;13.02;;;10.40;;
57746;SDS011;43580;44.014;20.466;2022-09-28T06:24:01;23.17;;;17.95;;
57746;SDS011;43580;44.014;20.466;2022-09-28T06:26:27;15.80;;;12.93;;
57746;SDS011;43580;44.014;20.466;2022-09-28T06:28:56;17.02;;;14.73;;
57746;SDS011;43580;44.014;20.466;2022-09-28T06:31:24;17.33;;;13.32;;
57746;SDS011;43580;44.014;20.466;2022-09-28T06:33:50;14.52;;;11.70;;
57746;SDS011;43580;44.014;20.466;2022-09-28T06:36:16;17.23;;;12.77;;
57746;SDS011;43580;44.014;20.466;2022-09-28T06:38:43;16.50;;;12.98;;
57746;SDS011;43580;44.014;20.466;2022-09-28T06:41:10;20.00;;;16.05;;
57746;SDS011;43580;44.014;20.466;2022-09-28T06:43:36;45.15;;;30.95;;
57746;SDS011;43580;44.014;20.466;2022-09-28T06:46:08;26.75;;;19.63;;
57746;SDS011;43580;44.014;20.466;2022-09-28T06:48:34;24.25;;;19.38;;
57746;SDS011;43580;44.014;20.466;2022-09-28T06:51:01;22.63;;;17.70;;
57746;SDS011;43580;44.014;20.466;2022-09-28T06:53:28;18.00;;;14.93;;
57746;SDS011;43580;44.014;20.466;2022-09-28T06:55:54;14.50;;;11.13;;
57746;SDS011;43580;44.014;20.466;2022-09-28T06:58:21;11.77;;;10.30;;
57746;SDS011;43580;44.014;20.466;2022-09-28T07:00:49;14.10;;;9.95;;
57746;SDS011;43580;44.014;20.466;2022-09-28T07:03:16;13.18;;;10.80;;
57746;SDS011;43580;44.014;20.466;2022-09-28T07:05:44;14.77;;;10.90;;
57746;SDS011;43580;44.014;20.466;2022-09-28T07:08:14;13.93;;;8.57;;
57746;SDS011;43580;44.014;20.466;2022-09-28T07:10:41;21.13;;;15.20;;
57746;SDS011;43580;44.014;20.466;2022-09-28T07:13:08;46.88;;;32.50;;
57746;SDS011;43580;44.014;20.466;2022-09-28T07:15:34;52.03;;;39.15;;
57746;SDS011;43580;44.014;20.466;2022-09-28T07:18:01;18.42;;;12.68;;
57746;SDS011;43580;44.014;20.466;2022-09-28T07:20:28;29.42;;;21.05;;
57746;SDS011;43580;44.014;20.466;2022-09-28T07:22:55;31.00;;;23.23;;
57746;SDS011;43580;44.014;20.466;2022-09-28T07:25:21;25.15;;;18.50;;
57746;SDS011;43580;44.014;20.466;2022-09-28T07:27:48;15.75;;;11.95;;
57746;SDS011;43580;44.014;20.466;2022-09-28T07:30:14;9.55;;;7.60;;
57746;SDS011;43580;44.014;20.466;2022-09-28T07:32:41;15.70;;;11.05;;
57746;SDS011;43580;44.014;20.466;2022-09-28T07:35:07;14.57;;;10.88;;
57746;SDS011;43580;44.014;20.466;2022-09-28T07:37:36;20.63;;;14.13;;
57746;SDS011;43580;44.014;20.466;2022-09-28T07:40:05;15.52;;;11.93;;
57746;SDS011;43580;44.014;20.466;2022-09-28T07:42:50;14.20;;;11.88;;
57746;SDS011;43580;44.014;20.466;2022-09-28T07:45:18;15.15;;;9.02;;
57746;SDS011;43580;44.014;20.466;2022-09-28T07:47:47;17.95;;;11.45;;
57746;SDS011;43580;44.014;20.466;2022-09-28T07:50:14;16.40;;;11.90;;
57746;SDS011;43580;44.014;20.466;2022-09-28T07:52:40;16.98;;;12.35;;
57746;SDS011;43580;44.014;20.466;2022-09-28T07:55:08;19.73;;;13.15;;
57746;SDS011;43580;44.014;20.466;2022-09-28T07:57:34;18.35;;;12.88;;
57746;SDS011;43580;44.014;20.466;2022-09-28T08:00:00;21.13;;;15.98;;
57746;SDS011;43580;44.014;20.466;2022-09-28T08:02:29;18.63;;;14.00;;
57746;SDS011;43580;44.014;20.466;2022-09-28T08:04:59;19.55;;;12.57;;
57746;SDS011;43580;44.014;20.466;2022-09-28T08:07:25;16.92;;;13.93;;
57746;SDS011;43580;44.014;20.466;2022-09-28T08:09:51;24.13;;;17.15;;
57746;SDS011;43580;44.014;20.466;2022-09-28T08:12:20;19.90;;;14.75;;
57746;SDS011;43580;44.014;20.466;2022-09-28T08:14:46;27.25;;;18.67;;
57746;SDS011;43580;44.014;20.466;2022-09-28T08:17:13;17.05;;;13.00;;
57746;SDS011;43580;44.014;20.466;2022-09-28T08:19:39;24.45;;;15.85;;
57746;SDS011;43580;44.014;20.466;2022-09-28T08:22:24;24.85;;;16.90;;
57746;SDS011;43580;44.014;20.466;2022-09-28T08:24:56;22.33;;;15.55;;
57746;SDS011;43580;44.014;20.466;2022-09-28T08:27:22;26.23;;;16.08;;
57746;SDS011;43580;44.014;20.466;2022-09-28T08:29:48;21.63;;;15.52;;
57746;SDS011;43580;44.014;20.466;2022-09-28T08:32:14;22.90;;;16.60;;
57746;SDS011;43580;44.014;20.466;2022-09-28T08:34:41;22.65;;;16.75;;
57746;SDS011;43580;44.014;20.466;2022-09-28T08:37:08;22.15;;;16.52;;
57746;SDS011;43580;44.014;20.466;2022-09-28T08:39:34;25.13;;;18.80;;
57746;SDS011;43580;44.014;20.466;2022-09-28T08:44:42;22.85;;;17.27;;
57746;SDS011;43580;44.014;20.466;2022-09-28T08:47:54;22.63;;;18.05;;
57746;SDS011;43580;44.014;20.466;2022-09-28T08:50:21;21.95;;;16.75;;
57746;SDS011;43580;44.014;20.466;2022-09-28T08:52:50;23.95;;;16.77;;
57746;SDS011;43580;44.014;20.466;2022-09-28T08:55:23;20.30;;;16.02;;
57746;SDS011;43580;44.014;20.466;2022-09-28T08:57:52;22.67;;;16.58;;
57746;SDS011;43580;44.014;20.466;2022-09-28T09:00:42;20.77;;;16.02;;
57746;SDS011;43580;44.014;20.466;2022-09-28T09:03:49;23.58;;;16.92;;
57746;SDS011;43580;44.014;20.466;2022-09-28T09:26:36;19.20;;;15.60;;
57746;SDS011;43580;44.014;20.466;2022-09-28T09:29:12;20.52;;;15.23;;
57746;SDS011;43580;44.014;20.466;2022-09-28T09:31:50;20.02;;;14.45;;
57746;SDS011;43580;44.014;20.466;2022-09-28T09:34:29;25.52;;;15.63;;
57746;SDS011;43580;44.014;20.466;2022-09-28T09:47:38;28.00;;;18.77;;
57746;SDS011;43580;44.014;20.466;2022-09-28T09:55:29;17.25;;;14.25;;
57746;SDS011;43580;44.014;20.466;2022-09-28T10:00:28;20.05;;;15.48;;
57746;SDS011;43580;44.014;20.466;2022-09-28T10:02:58;20.02;;;13.80;;
57746;SDS011;43580;44.014;20.466;2022-09-28T10:05:27;19.73;;;14.07;;
57746;SDS011;43580;44.014;20.466;2022-09-28T10:08:03;18.77;;;13.63;;
57746;SDS011;43580;44.014;20.466;2022-09-28T10:10:34;20.48;;;15.15;;
57746;SDS011;43580;44.014;20.466;2022-09-28T10:13:01;21.17;;;14.73;;
57746;SDS011;43580;44.014;20.466;2022-09-28T10:15:29;24.73;;;18.02;;
57746;SDS011;43580;44.014;20.466;2022-09-28T10:17:56;20.27;;;15.73;;
57746;SDS011;43580;44.014;20.466;2022-09-28T10:20:24;35.28;;;14.80;;
57746;SDS011;43580;44.014;20.466;2022-09-28T10:22:50;22.50;;;15.98;;
57746;SDS011;43580;44.014;20.466;2022-09-28T10:25:17;30.67;;;18.58;;
57746;SDS011;43580;44.014;20.466;2022-09-28T10:27:43;19.55;;;13.48;;
57746;SDS011;43580;44.014;20.466;2022-09-28T10:30:20;19.42;;;13.05;;
57746;SDS011;43580;44.014;20.466;2022-09-28T10:32:50;17.02;;;12.70;;
57746;SDS011;43580;44.014;20.466;2022-09-28T10:35:25;16.60;;;12.82;;
57746;SDS011;43580;44.014;20.466;2022-09-28T10:43:27;19.70;;;12.50;;
57746;SDS011;43580;44.014;20.466;2022-09-28T10:46:13;21.05;;;14.55;;
57746;SDS011;43580;44.014;20.466;2022-09-28T10:51:11;17.50;;;11.13;;
57746;SDS011;43580;44.014;20.466;2022-09-28T10:53:38;15.15;;;10.88;;
57746;SDS011;43580;44.014;20.466;2022-09-28T10:56:20;13.82;;;10.45;;
57746;SDS011;43580;44.014;20.466;2022-09-28T10:58:46;18.42;;;10.68;;
57746;SDS011;43580;44.014;20.466;2022-09-28T11:01:16;17.45;;;11.60;;
57746;SDS011;43580;44.014;20.466;2022-09-28T11:06:25;14.70;;;9.95;;
57746;SDS011;43580;44.014;20.466;2022-09-28T11:08:52;11.53;;;7.63;;
57746;SDS011;43580;44.014;20.466;2022-09-28T11:11:18;12.95;;;8.60;;
57746;SDS011;43580;44.014;20.466;2022-09-28T11:16:19;13.07;;;8.45;;
57746;SDS011;43580;44.014;20.466;2022-09-28T11:18:47;16.63;;;10.07;;
57746;SDS011;43580;44.014;20.466;2022-09-28T11:21:14;14.43;;;9.52;;
57746;SDS011;43580;44.014;20.466;2022-09-28T11:23:40;15.88;;;8.63;;
57746;SDS011;43580;44.014;20.466;2022-09-28T11:26:11;13.18;;;8.48;;
57746;SDS011;43580;44.014;20.466;2022-09-28T11:28:38;10.15;;;8.05;;
57746;SDS011;43580;44.014;20.466;2022-09-28T11:31:06;19.25;;;11.30;;
57746;SDS011;43580;44.014;20.466;2022-09-28T11:33:35;13.63;;;9.98;;
57746;SDS011;43580;44.014;20.466;2022-09-28T11:41:01;15.80;;;9.10;;
57746;SDS011;43580;44.014;20.466;2022-09-28T11:46:24;13.25;;;9.00;;
57746;SDS011;43580;44.014;20.466;2022-09-28T11:48:54;13.10;;;9.25;;
57746;SDS011;43580;44.014;20.466;2022-09-28T11:51:26;12.77;;;8.15;;
57746;SDS011;43580;44.014;20.466;2022-09-28T11:53:55;10.82;;;7.57;;
57746;SDS011;43580;44.014;20.466;2022-09-28T11:56:38;11.05;;;7.60;;
57746;SDS011;43580;44.014;20.466;2022-09-28T12:04:11;13.65;;;8.98;;
57746;SDS011;43580;44.014;20.466;2022-09-28T12:06:45;15.90;;;8.35;;
57746;SDS011;43580;44.014;20.466;2022-09-28T12:09:37;12.32;;;7.88;;
57746;SDS011;43580;44.014;20.466;2022-09-28T12:12:02;14.88;;;11.15;;
57746;SDS011;43580;44.014;20.466;2022-09-28T12:14:33;14.52;;;9.85;;
57746;SDS011;43580;44.014;20.466;2022-09-28T12:17:03;12.02;;;8.23;;
57746;SDS011;43580;44.014;20.466;2022-09-28T12:22:11;13.38;;;8.40;;
57746;SDS011;43580;44.014;20.466;2022-09-28T12:24:41;11.45;;;7.43;;
57746;SDS011;43580;44.014;20.466;2022-09-28T12:32:24;9.95;;;7.35;;
57746;SDS011;43580;44.014;20.466;2022-09-28T12:34:51;10.57;;;7.50;;
57746;SDS011;43580;44.014;20.466;2022-09-28T12:40:19;15.80;;;8.25;;
57746;SDS011;43580;44.014;20.466;2022-09-28T12:42:50;14.20;;;7.82;;
57746;SDS011;43580;44.014;20.466;2022-09-28T12:46:26;15.18;;;8.30;;
57746;SDS011;43580;44.014;20.466;2022-09-28T13:06:14;11.65;;;7.88;;
57746;SDS011;43580;44.014;20.466;2022-09-28T13:08:47;15.50;;;9.85;;
57746;SDS011;43580;44.014;20.466;2022-09-28T13:11:35;13.48;;;8.82;;
57746;SDS011;43580;44.014;20.466;2022-09-28T13:24:23;23.08;;;14.90;;
57746;SDS011;43580;44.014;20.466;2022-09-28T13:26:51;13.57;;;8.63;;
57746;SDS011;43580;44.014;20.466;2022-09-28T13:29:18;16.63;;;9.30;;
57746;SDS011;43580;44.014;20.466;2022-09-28T13:31:50;13.60;;;9.45;;
57746;SDS011;43580;44.014;20.466;2022-09-28T13:34:21;18.50;;;10.10;;
57746;SDS011;43580;44.014;20.466;2022-09-28T13:39:37;16.38;;;9.85;;
57746;SDS011;43580;44.014;20.466;2022-09-28T13:42:20;16.48;;;9.52;;
57746;SDS011;43580;44.014;20.466;2022-09-28T13:45:01;18.23;;;11.30;;
57746;SDS011;43580;44.014;20.466;2022-09-28T13:52:43;15.57;;;10.43;;
57746;SDS011;43580;44.014;20.466;2022-09-28T13:57:52;15.55;;;10.13;;
57746;SDS011;43580;44.014;20.466;2022-09-28T14:02:55;14.88;;;9.55;;
57746;SDS011;43580;44.014;20.466;2022-09-28T14:10:45;14.18;;;10.00;;
57746;SDS011;43580;44.014;20.466;2022-09-28T14:13:21;16.98;;;8.93;;
57746;SDS011;43580;44.014;20.466;2022-09-28T14:18:47;14.57;;;10.05;;
57746;SDS011;43580;44.014;20.466;2022-09-28T14:29:00;15.60;;;10.77;;
57746;SDS011;43580;44.014;20.466;2022-09-28T14:31:31;15.70;;;9.45;;
57746;SDS011;43580;44.014;20.466;2022-09-28T14:33:58;22.92;;;14.52;;
57746;SDS011;43580;44.014;20.466;2022-09-28T14:36:39;17.52;;;10.15;;
57746;SDS011;43580;44.014;20.466;2022-09-28T14:39:45;15.15;;;9.27;;
57746;SDS011;43580;44.014;20.466;2022-09-28T14:42:30;18.20;;;11.38;;
57746;SDS011;43580;44.014;20.466;2022-09-28T14:50:42;16.58;;;10.25;;
57746;SDS011;43580;44.014;20.466;2022-09-28T14:52:50;14.13;;;10.10;;
57746;SDS011;43580;44.014;20.466;2022-09-28T14:55:19;16.55;;;10.10;;
57746;SDS011;43580;44.014;20.466;2022-09-28T14:57:54;15.32;;;10.55;;
57746;SDS011;43580;44.014;20.466;2022-09-28T15:00:21;14.02;;;10.32;;
57746;SDS011;43580;44.014;20.466;2022-09-28T15:02:49;13.90;;;10.60;;
57746;SDS011;43580;44.014;20.466;2022-09-28T15:05:18;15.90;;;10.52;;
57746;SDS011;43580;44.014;20.466;2022-09-28T15:07:46;14.32;;;9.80;;
57746;SDS011;43580;44.014;20.466;2022-09-28T15:10:49;17.08;;;9.35;;
57746;SDS011;43580;44.014;20.466;2022-09-28T15:15:45;15.77;;;10.40;;
57746;SDS011;43580;44.014;20.466;2022-09-28T15:20:49;17.33;;;11.05;;
57746;SDS011;43580;44.014;20.466;2022-09-28T15:23:35;13.90;;;10.05;;
57746;SDS011;43580;44.014;20.466;2022-09-28T15:26:02;15.65;;;10.98;;
57746;SDS011;43580;44.014;20.466;2022-09-28T15:28:32;19.20;;;10.45;;
57746;SDS011;43580;44.014;20.466;2022-09-28T15:31:01;14.90;;;11.23;;
57746;SDS011;43580;44.014;20.466;2022-09-28T15:33:34;16.90;;;11.30;;
57746;SDS011;43580;44.014;20.466;2022-09-28T15:36:20;18.20;;;11.23;;
57746;SDS011;43580;44.014;20.466;2022-09-28T15:38:54;17.33;;;12.15;;
57746;SDS011;43580;44.014;20.466;2022-09-28T15:41:22;16.20;;;11.95;;
57746;SDS011;43580;44.014;20.466;2022-09-28T15:46:33;15.15;;;11.73;;
57746;SDS011;43580;44.014;20.466;2022-09-28T15:49:03;18.95;;;14.50;;
57746;SDS011;43580;44.014;20.466;2022-09-28T15:51:30;26.45;;;16.80;;
57746;SDS011;43580;44.014;20.466;2022-09-28T15:54:02;29.15;;;19.38;;
57746;SDS011;43580;44.014;20.466;2022-09-28T15:56:29;29.08;;;19.15;;
57746;SDS011;43580;44.014;20.466;2022-09-28T16:01:40;31.97;;;21.17;;
57746;SDS011;43580;44.014;20.466;2022-09-28T16:09:30;39.92;;;24.23;;
57746;SDS011;43580;44.014;20.466;2022-09-28T16:11:58;39.17;;;27.77;;
57746;SDS011;43580;44.014;20.466;2022-09-28T16:14:24;44.00;;;30.00;;
57746;SDS011;43580;44.014;20.466;2022-09-28T16:16:51;35.47;;;24.55;;
57746;SDS011;43580;44.014;20.466;2022-09-28T16:19:22;45.92;;;30.63;;
57746;SDS011;43580;44.014;20.466;2022-09-28T16:21:50;44.35;;;26.95;;
57746;SDS011;43580;44.014;20.466;2022-09-28T16:24:21;45.88;;;30.92;;
57746;SDS011;43580;44.014;20.466;2022-09-28T16:26:47;53.05;;;36.25;;
57746;SDS011;43580;44.014;20.466;2022-09-28T16:29:24;40.95;;;27.98;;
57746;SDS011;43580;44.014;20.466;2022-09-28T16:31:51;38.95;;;27.52;;
57746;SDS011;43580;44.014;20.466;2022-09-28T16:34:18;38.40;;;24.63;;
57746;SDS011;43580;44.014;20.466;2022-09-28T16:36:45;29.95;;;22.23;;
57746;SDS011;43580;44.014;20.466;2022-09-28T16:39:12;29.30;;;21.67;;
57746;SDS011;43580;44.014;20.466;2022-09-28T16:41:43;32.45;;;22.38;;
57746;SDS011;43580;44.014;20.466;2022-09-28T16:44:12;43.55;;;28.80;;
57746;SDS011;43580;44.014;20.466;2022-09-28T16:46:41;42.10;;;30.05;;
57746;SDS011;43580;44.014;20.466;2022-09-28T16:49:10;39.53;;;28.52;;
57746;SDS011;43580;44.014;20.466;2022-09-28T16:51:37;34.28;;;25.30;;
57746;SDS011;43580;44.014;20.466;2022-09-28T16:54:21;38.63;;;23.05;;
57746;SDS011;43580;44.014;20.466;2022-09-28T16:57:09;37.17;;;27.60;;
57746;SDS011;43580;44.014;20.466;2022-09-28T16:59:38;37.75;;;26.83;;
57746;SDS011;43580;44.014;20.466;2022-09-28T17:02:18;73.95;;;46.10;;
57746;SDS011;43580;44.014;20.466;2022-09-28T17:04:44;54.65;;;36.75;;
57746;SDS011;43580;44.014;20.466;2022-09-28T17:07:11;49.58;;;36.53;;
57746;SDS011;43580;44.014;20.466;2022-09-28T17:09:37;46.55;;;31.33;;
57746;SDS011;43580;44.014;20.466;2022-09-28T17:12:19;52.08;;;37.47;;
57746;SDS011;43580;44.014;20.466;2022-09-28T17:14:47;51.15;;;39.42;;
57746;SDS011;43580;44.014;20.466;2022-09-28T17:17:13;46.53;;;34.70;;
57746;SDS011;43580;44.014;20.466;2022-09-28T17:19:39;45.10;;;32.88;;
57746;SDS011;43580;44.014;20.466;2022-09-28T17:22:06;43.28;;;32.05;;
57746;SDS011;43580;44.014;20.466;2022-09-28T17:24:33;40.13;;;31.77;;
57746;SDS011;43580;44.014;20.466;2022-09-28T17:26:59;48.03;;;33.70;;
57746;SDS011;43580;44.014;20.466;2022-09-28T17:29:27;48.58;;;36.28;;
57746;SDS011;43580;44.014;20.466;2022-09-28T17:31:53;53.28;;;37.92;;
57746;SDS011;43580;44.014;20.466;2022-09-28T17:34:20;56.50;;;39.65;;
57746;SDS011;43580;44.014;20.466;2022-09-28T17:36:46;50.58;;;38.97;;
57746;SDS011;43580;44.014;20.466;2022-09-28T17:39:15;52.50;;;39.38;;
57746;SDS011;43580;44.014;20.466;2022-09-28T17:41:42;48.40;;;35.63;;